createdAt,value
2022-07-26T06:31:50.824Z,99.90
2022-07-26T06:33:59.054Z,99.90
2022-07-26T06:36:08.954Z,99.90
2022-07-26T06:38:17.306Z,99.90
2022-07-26T06:40:27.429Z,99.90
2022-07-26T06:42:35.984Z,99.90
2022-07-26T06:44:44.250Z,99.90
2022-07-26T06:46:52.813Z,99.90
2022-07-26T06:49:01.161Z,99.90
2022-07-26T06:51:10.303Z,99.90
2022-07-26T06:53:18.755Z,99.90
2022-07-26T06:55:28.486Z,99.90
2022-07-26T06:57:44.696Z,99.90
2022-07-26T06:59:58.108Z,99.90
2022-07-26T07:02:06.539Z,99.90
2022-07-26T07:04:15.181Z,99.90
2022-07-26T07:06:25.234Z,99.90
2022-07-26T07:08:33.457Z,99.90
2022-07-26T07:10:43.570Z,99.90
2022-07-26T07:12:52.241Z,99.90
2022-07-26T07:15:00.434Z,99.90
2022-07-26T07:17:11.222Z,99.90
2022-07-26T07:19:22.472Z,99.90
2022-07-26T07:21:30.671Z,99.90
2022-07-26T07:23:38.852Z,99.90
2022-07-26T07:25:48.852Z,99.90
2022-07-26T07:28:00.362Z,99.90
2022-07-26T07:30:11.026Z,99.90
2022-07-26T07:32:19.766Z,99.90
2022-07-26T07:34:28.418Z,99.90
2022-07-26T07:36:36.676Z,99.90
2022-07-26T07:38:46.278Z,99.90
2022-07-26T07:40:56.058Z,99.90
2022-07-26T07:43:04.420Z,99.90
2022-07-26T07:45:12.912Z,99.90
2022-07-26T07:47:22.238Z,99.90
2022-07-26T07:49:30.573Z,99.90
2022-07-26T07:51:39.102Z,99.90
2022-07-26T07:53:56.344Z,99.90
2022-07-26T07:56:07.382Z,99.90
2022-07-26T07:58:17.423Z,99.90
2022-07-26T08:00:27.684Z,99.90
2022-07-26T08:02:36.275Z,99.90
2022-07-26T08:04:44.633Z,99.90
2022-07-26T09:56:48.652Z,99.90
2022-07-26T09:58:58.395Z,99.90
2022-07-26T10:01:08.204Z,99.90
2022-07-26T10:03:16.879Z,99.90
2022-07-26T10:05:25.958Z,99.90
2022-07-26T10:07:34.295Z,99.90
2022-07-26T10:09:49.964Z,99.90
2022-07-26T10:12:02.628Z,99.90
2022-07-26T10:14:40.553Z,99.90
2022-07-26T10:16:48.971Z,99.90
2022-07-26T10:18:58.043Z,99.90
2022-07-26T10:21:20.298Z,99.90
2022-07-26T10:23:37.822Z,99.90
2022-07-26T10:25:49.954Z,99.90
2022-07-26T10:27:58.985Z,99.90
2022-07-26T10:30:28.819Z,99.90
2022-07-26T10:32:42.747Z,99.90
2022-07-26T10:34:51.391Z,99.90
2022-07-26T10:37:00.736Z,99.90
2022-07-26T10:39:14.878Z,99.90
2022-07-26T10:41:32.849Z,99.90
2022-07-26T10:43:42.340Z,99.90
2022-07-26T10:46:25.161Z,99.90
2022-07-26T10:48:33.922Z,99.90
2022-07-26T10:50:43.856Z,99.90
2022-07-26T10:53:00.119Z,99.90
2022-07-26T10:55:09.731Z,99.90
2022-07-26T10:57:18.043Z,99.90
2022-07-26T10:59:54.768Z,99.90
2022-07-26T11:02:04.299Z,99.90
2022-07-26T12:25:29.175Z,99.90
2022-07-26T12:27:47.525Z,99.90
2022-07-26T12:30:14.852Z,99.90
2022-07-26T12:32:24.847Z,99.90
2022-07-26T12:34:35.646Z,99.90
2022-07-26T12:36:43.887Z,99.90
2022-07-26T12:38:56.136Z,99.90
2022-07-26T12:41:05.293Z,99.90
2022-07-26T12:43:13.471Z,99.90
2022-07-26T12:45:23.740Z,99.90
2022-07-26T12:47:32.371Z,99.90
2022-07-26T12:49:42.364Z,99.90
2022-07-26T12:51:50.982Z,99.90
2022-07-26T12:53:59.675Z,99.90
2022-07-26T12:56:07.928Z,99.90
2022-07-26T12:58:16.201Z,99.90
2022-07-26T13:00:24.927Z,99.90
2022-07-26T13:02:33.277Z,99.90
2022-07-26T13:04:43.106Z,99.90
2022-07-26T13:06:51.435Z,99.90
2022-07-26T13:09:00.882Z,99.90
2022-07-26T13:11:09.152Z,99.90
2022-07-26T13:13:17.524Z,99.90
2022-07-26T13:15:36.001Z,99.90
2022-07-26T13:17:45.689Z,99.90
2022-07-26T13:19:55.427Z,99.90
2022-07-26T13:22:04.954Z,99.90
2022-07-26T13:24:13.446Z,99.90
2022-07-26T13:26:21.821Z,99.90
2022-07-26T13:28:30.598Z,99.90
2022-07-26T13:30:43.175Z,99.90
2022-07-26T13:32:51.992Z,99.90
2022-07-26T13:35:02.044Z,99.90
2022-07-26T13:37:10.266Z,99.90
2022-07-26T13:39:19.386Z,99.90
2022-07-26T13:41:27.859Z,99.90
2022-07-26T13:43:39.101Z,99.90
2022-07-26T13:45:47.402Z,99.90
2022-07-26T13:47:55.621Z,99.90
2022-07-26T13:50:07.809Z,99.90
2022-07-26T13:52:17.041Z,99.90
2022-07-26T13:54:27.821Z,99.90
2022-07-26T13:56:36.025Z,99.90
2022-07-26T13:58:44.322Z,99.90
2022-07-26T14:00:52.715Z,99.90
2022-07-26T14:03:01.267Z,99.90
2022-07-26T14:05:11.839Z,99.90
2022-07-26T14:07:20.083Z,99.90
2022-07-26T14:09:28.563Z,99.90
2022-07-26T14:11:37.175Z,99.90
2022-07-26T14:13:45.589Z,99.90
2022-07-26T14:15:53.889Z,99.90
2022-07-26T14:18:03.129Z,99.90
2022-07-26T14:20:14.034Z,99.90
2022-07-26T14:22:22.319Z,99.90
2022-07-26T14:24:30.818Z,99.90
2022-07-26T14:26:39.018Z,99.90
2022-07-26T14:28:47.448Z,99.90
2022-07-26T14:30:56.098Z,99.90
2022-07-26T14:33:06.293Z,99.90
2022-07-26T14:35:17.738Z,99.90
2022-07-26T14:37:41.571Z,99.90
2022-07-26T14:39:51.240Z,99.90
2022-07-26T14:41:59.828Z,99.90
2022-07-26T14:44:08.459Z,99.90
2022-07-26T14:46:17.388Z,99.90
2022-07-26T14:48:51.885Z,99.90
2022-07-26T14:51:09.172Z,99.90
2022-07-26T14:53:19.350Z,99.90
2022-07-26T14:55:28.486Z,99.90
2022-07-26T14:57:38.214Z,99.90
2022-07-26T14:59:49.320Z,99.90
2022-07-26T15:02:01.347Z,99.90
2022-07-26T15:04:13.966Z,99.90
2022-07-26T15:06:25.082Z,99.90
2022-07-26T15:08:33.329Z,99.90
2022-07-26T15:10:41.741Z,99.90
2022-07-26T15:12:50.340Z,99.90
2022-07-26T15:14:58.658Z,99.90
2022-07-26T15:17:06.888Z,99.90
2022-07-26T15:19:22.162Z,99.90
2022-07-26T15:21:34.857Z,99.90
2022-07-26T15:23:46.299Z,99.90
2022-07-26T15:25:54.676Z,99.90
2022-07-26T15:28:02.995Z,99.90
2022-07-26T15:30:14.742Z,99.90
2022-07-26T15:32:23.514Z,99.90
2022-07-26T15:34:31.787Z,99.90
2022-07-26T15:36:41.807Z,99.90
2022-07-26T15:38:49.991Z,99.90
2022-07-26T15:40:58.266Z,99.90
2022-07-26T15:43:06.934Z,99.90
2022-07-26T15:45:15.985Z,99.90
2022-07-26T15:47:53.222Z,99.90
2022-07-26T15:49:52.680Z,99.90
2022-07-26T15:52:02.442Z,99.90
2022-07-26T15:54:12.152Z,99.90
2022-07-26T15:56:20.766Z,99.90
2022-07-26T15:58:30.009Z,99.60
2022-07-26T16:00:41.442Z,98.20
2022-07-26T16:02:49.784Z,97.20
2022-07-26T16:05:01.022Z,97.40
2022-07-26T16:07:11.148Z,95.40
2022-07-26T16:09:20.017Z,95.90
2022-07-26T16:11:29.375Z,94.80
2022-07-26T16:13:37.642Z,94.30
2022-07-26T16:15:46.056Z,93.20
2022-07-26T16:17:54.313Z,92.80
2022-07-26T16:20:02.844Z,92.90
2022-07-26T16:22:12.556Z,92.70
2022-07-26T16:24:20.938Z,93.00
2022-07-26T16:26:29.190Z,93.60
2022-07-26T16:28:37.507Z,91.60
2022-07-26T16:30:48.775Z,91.70
2022-07-26T16:32:57.100Z,91.10
2022-07-26T16:35:05.768Z,91.10
2022-07-26T16:37:15.663Z,91.80
2022-07-26T16:39:24.234Z,90.70
2022-07-26T16:41:32.750Z,90.50
2022-07-26T16:43:41.094Z,91.50
2022-07-26T16:45:49.363Z,91.60
2022-07-26T16:47:59.999Z,90.80
2022-07-26T16:50:09.130Z,90.50
2022-07-26T16:52:18.944Z,88.00
2022-07-26T16:54:27.646Z,89.10
2022-07-26T16:56:36.732Z,89.70
2022-07-26T16:58:45.084Z,88.80
2022-07-26T17:00:53.896Z,86.60
2022-07-26T17:03:02.235Z,87.40
2022-07-26T17:05:11.056Z,87.10
2022-07-26T17:07:25.918Z,85.30
2022-07-26T17:09:34.686Z,84.80
2022-07-26T17:11:43.065Z,85.40
2022-07-26T17:13:51.243Z,85.70
2022-07-26T17:15:59.512Z,85.00
2022-07-26T17:18:08.157Z,83.70
2022-07-26T17:20:16.506Z,82.80
2022-07-26T17:22:26.497Z,80.80
2022-07-26T17:24:34.730Z,79.50
2022-07-26T17:26:43.132Z,81.60
2022-07-26T17:28:51.478Z,83.90
2022-07-26T17:31:01.028Z,83.60
2022-07-26T17:33:10.356Z,81.50
2022-07-26T17:35:19.682Z,81.10
2022-07-26T17:37:29.284Z,80.60
2022-07-26T17:39:53.657Z,84.80
2022-07-26T17:42:02.627Z,85.00
2022-07-26T17:44:11.075Z,86.80
2022-07-26T17:46:19.620Z,85.80
2022-07-26T17:48:28.004Z,86.60
2022-07-26T17:50:37.830Z,88.20
2022-07-26T17:52:48.933Z,90.00
2022-07-26T17:54:58.979Z,89.10
2022-07-26T17:57:07.269Z,84.30
2022-07-26T17:59:15.575Z,80.90
2022-07-26T18:01:23.863Z,82.90
2022-07-26T18:03:32.315Z,84.30
2022-07-26T18:05:41.571Z,85.20
2022-07-26T18:07:51.435Z,86.00
2022-07-26T18:09:59.658Z,85.80
2022-07-26T18:12:08.170Z,86.20
2022-07-26T18:14:16.782Z,84.20
2022-07-26T18:16:25.170Z,84.90
2022-07-26T18:18:33.587Z,83.90
2022-07-26T18:20:41.946Z,84.30
2022-07-26T18:22:51.645Z,85.90
2022-07-26T18:25:00.297Z,86.00
2022-07-26T18:27:08.937Z,84.40
2022-07-26T18:29:17.524Z,85.50
2022-07-26T18:31:26.067Z,86.10
2022-07-26T18:33:34.388Z,84.70
2022-07-26T18:35:43.410Z,84.60
2022-07-26T18:37:54.042Z,84.60
2022-07-26T18:40:02.402Z,85.80
2022-07-26T18:42:10.726Z,85.90
2022-07-26T18:44:19.310Z,86.30
2022-07-26T18:46:28.097Z,87.30
2022-07-26T18:48:36.673Z,88.10
2022-07-26T18:50:52.371Z,89.00
2022-07-26T18:53:03.134Z,90.50
2022-07-26T18:55:12.791Z,90.40
2022-07-26T18:57:21.363Z,91.00
2022-07-26T18:59:31.251Z,91.50
2022-07-26T19:01:39.820Z,91.20
2022-07-26T19:03:48.059Z,91.30
2022-07-26T19:05:56.453Z,91.20
2022-07-26T19:08:06.994Z,91.70
2022-07-26T19:10:15.503Z,91.50
2022-07-26T19:12:23.714Z,91.80
2022-07-26T19:14:31.965Z,90.70
2022-07-26T19:16:40.536Z,91.00
2022-07-26T19:18:51.662Z,91.20
2022-07-26T19:21:00.965Z,91.10
2022-07-26T19:23:11.403Z,91.30
2022-07-26T19:25:19.982Z,91.80
2022-07-26T19:27:29.318Z,91.50
2022-07-26T19:29:37.646Z,91.70
2022-07-26T19:31:46.038Z,92.20
2022-07-26T19:33:54.780Z,92.60
2022-07-26T19:36:03.349Z,92.40
2022-07-26T19:38:13.458Z,93.20
2022-07-26T19:40:21.994Z,93.20
2022-07-26T19:42:31.866Z,93.70
2022-07-26T19:44:40.525Z,94.10
2022-07-26T19:46:50.234Z,94.20
2022-07-26T19:49:00.828Z,94.40
2022-07-26T19:51:09.184Z,94.50
2022-07-26T20:08:07.774Z,96.30
2022-07-26T20:10:18.255Z,96.10
2022-07-26T20:12:26.426Z,96.50
2022-07-26T20:14:34.825Z,96.70
2022-07-26T20:16:43.502Z,97.00
2022-07-26T20:18:51.763Z,97.10
2022-07-26T20:21:01.080Z,97.30
2022-07-26T20:23:11.063Z,97.30
2022-07-26T20:25:22.044Z,97.70
2022-07-26T20:27:30.428Z,98.20
2022-07-26T20:29:38.818Z,98.30
2022-07-26T20:31:47.265Z,98.80
2022-07-26T20:33:55.576Z,99.10
2022-07-26T20:36:03.863Z,99.40
2022-07-26T20:38:12.247Z,99.90
2022-07-26T20:40:22.779Z,99.90
2022-07-26T20:42:31.200Z,99.90
2022-07-26T20:44:40.007Z,99.90
2022-07-26T20:46:48.237Z,99.90
2022-07-26T20:48:56.595Z,99.90
2022-07-26T20:51:13.310Z,99.90
2022-07-26T20:53:22.103Z,99.90
2022-07-26T20:55:31.825Z,99.90
2022-07-26T20:57:40.186Z,99.90
2022-07-26T20:59:48.430Z,99.90
2022-07-26T21:01:57.046Z,99.90
2022-07-26T21:04:05.717Z,99.90
2022-07-26T21:06:14.086Z,99.90
2022-07-26T21:08:22.885Z,99.90
2022-07-26T21:10:33.282Z,99.90
2022-07-26T21:12:41.419Z,99.90
2022-07-26T21:14:49.862Z,99.90
2022-07-26T21:16:59.845Z,99.90
2022-07-26T21:19:08.787Z,99.90
2022-07-26T21:21:17.322Z,99.90
2022-07-26T21:23:25.584Z,99.90
2022-07-26T21:25:35.568Z,99.90
2022-07-26T21:27:44.054Z,99.90
2022-07-26T21:29:52.335Z,99.90
2022-07-26T21:32:00.882Z,99.90
2022-07-26T21:34:10.074Z,99.90
2022-07-26T21:36:20.169Z,99.90
2022-07-26T21:38:31.918Z,99.90
2022-07-26T21:40:42.298Z,99.90
2022-07-26T21:42:50.925Z,99.90
2022-07-26T21:44:59.461Z,99.90
2022-07-26T21:47:08.270Z,99.90
2022-07-26T21:49:18.430Z,99.90
2022-07-26T21:51:29.506Z,99.90
2022-07-26T21:53:40.610Z,99.90
2022-07-26T21:55:50.433Z,99.90
2022-07-26T21:57:59.061Z,99.90
2022-07-26T22:00:08.931Z,99.90
2022-07-26T22:02:20.124Z,99.90
